Time;durP1;ratioP1;P1;durP2;ratioP2;P2;SDS_P1;SDS_P2;PMS_P1;PMS_P2;Temp;Humidity;BMP_temperature;BMP_pressure;BME280_temperature;BME280_humidity;BME280_pressure;Samples;Min_cycle;Max_cycle;Signal;HPM_P1;HPM_P2
2022/08/09 00:04:06;;;;;;;4.82;2.40;;;;;;;16.94;53.57;101046.31;30030877;29;111278;-62
2022/08/09 00:19:08;;;;;;;3.65;2.00;;;;;;;16.94;53.35;101047.16;30028142;29;99199;-61
2022/08/09 00:34:08;;;;;;;5.37;2.47;;;;;;;16.45;54.11;101048.63;30027428;29;96753;-61
2022/08/09 00:49:09;;;;;;;4.40;2.50;;;;;;;16.04;55.42;101052.63;30027109;29;97482;-62
2022/08/09 01:04:36;;;;;;;6.23;2.70;;;;;;;15.77;56.51;101061.31;30025579;29;96816;-61
2022/08/09 01:19:42;;;;;;;5.50;2.80;;;;;;;15.52;57.13;101062.38;30024216;29;97477;-61
2022/08/09 01:34:45;;;;;;;7.63;2.77;;;;;;;15.35;58.13;101052.78;30022433;29;96822;-61
2022/08/09 01:49:48;;;;;;;6.93;3.10;;;;;;;15.41;58.65;101060.13;30021630;29;96730;-61
2022/08/09 02:04:49;;;;;;;;;;;;;;;15.34;58.72;101072.59;30022107;29;97686;-61
2022/08/09 02:19:49;;;;;;;7.13;3.50;;;;;;;15.16;59.43;101068.38;30021324;29;96718;-61
2022/08/09 02:34:56;;;;;;;4.85;3.05;;;;;;;14.93;60.48;101063.00;30018811;29;97326;-62
2022/08/09 02:50:09;;;;;;;5.90;3.80;;;;;;;14.62;61.23;101068.34;30022909;29;96799;-62
2022/08/09 03:05:11;;;;;;;8.63;3.57;;;;;;;14.33;62.29;101064.44;30035841;29;97089;-61
2022/08/09 03:20:13;;;;;;;8.60;5.10;;;;;;;14.49;62.74;101067.06;30034540;29;96801;-61
2022/08/09 03:35:13;;;;;;;10.60;6.57;;;;;;;14.51;63.02;101061.50;30033503;29;97113;-63
2022/08/09 03:50:15;;;;;;;9.85;4.55;;;;;;;14.42;62.98;101063.41;30031161;29;97649;-61
2022/08/09 04:05:15;;;;;;;7.87;3.73;;;;;;;14.77;63.68;101071.97;30028679;29;96812;-61
2022/08/09 04:20:16;;;;;;;10.18;4.85;;;;;;;15.42;62.96;101069.84;30026633;29;96668;-62
2022/08/09 04:35:17;;;;;;;6.47;3.83;;;;;;;15.87;62.04;101094.97;30018365;29;97239;-58
2022/08/09 04:50:17;;;;;;;6.20;3.50;;;;;;;16.54;61.39;101095.91;30020735;29;96841;-59
2022/08/09 05:05:18;;;;;;;8.10;4.50;;;;;;;17.59;59.83;101109.91;30019189;29;96834;-59
2022/08/09 05:20:20;;;;;;;10.85;4.88;;;;;;;18.08;58.12;101126.25;30016791;29;97052;-59
2022/08/09 05:35:20;;;;;;;6.30;3.47;;;;;;;18.15;57.34;101129.84;30018038;29;96780;-58
2022/08/09 05:50:24;;;;;;;6.75;3.60;;;;;;;18.85;56.43;101129.78;30015231;29;97320;-58
2022/08/09 06:05:30;;;;;;;7.93;3.23;;;;;;;19.84;54.43;101143.69;30014501;29;98386;-59
2022/08/09 06:20:31;;;;;;;7.40;3.20;;;;;;;20.76;52.08;101137.47;30014481;29;97045;-60
2022/08/09 06:35:32;;;;;;;7.37;3.00;;;;;;;21.46;49.85;101147.53;30032743;29;97007;-59
2022/08/09 06:50:32;;;;;;;4.70;2.83;;;;;;;22.09;47.66;101160.19;30030896;29;97821;-59
2022/08/09 07:05:34;;;;;;;5.10;2.60;;;;;;;22.40;46.36;101168.47;30028963;29;97159;-59
2022/08/09 07:20:34;;;;;;;4.83;2.83;;;;;;;22.68;45.45;101180.66;30027124;29;96892;-59
2022/08/09 07:35:34;;;;;;;6.90;2.70;;;;;;;22.97;44.26;101192.66;30028525;29;96773;-59
2022/08/09 07:50:39;;;;;;;8.07;3.90;;;;;;;23.32;44.00;101198.28;30026205;29;97332;-60
2022/08/09 08:05:39;;;;;;;6.57;2.30;;;;;;;24.56;41.95;101195.81;30024787;29;97605;-60
2022/08/09 08:20:40;;;;;;;6.43;2.10;;;;;;;25.55;40.63;101207.63;30015356;29;98209;-61
2022/08/09 08:35:40;;;;;;;6.82;2.10;;;;;;;26.75;38.98;101197.47;30013054;29;97770;-59
2022/08/09 08:50:41;;;;;;;6.15;1.52;;;;;;;28.45;36.32;101207.25;30015522;29;97475;-59
2022/08/09 09:05:41;;;;;;;6.40;1.67;;;;;;;29.40;34.33;101208.16;30014503;29;97381;-59
2022/08/09 09:20:42;;;;;;;5.60;1.80;;;;;;;30.48;33.15;101202.63;30014079;29;96739;-60
2022/08/09 09:35:54;;;;;;;5.27;2.17;;;;;;;31.24;31.76;101214.41;30040688;29;97180;-59
2022/08/09 09:50:55;;;;;;;3.40;1.70;;;;;;;32.60;29.67;101212.94;30135504;28;97259;-59
2022/08/09 10:05:57;;;;;;;6.00;1.40;;;;;;;32.88;29.25;101194.69;30146285;29;96787;-58
2022/08/09 10:21:24;;;;;;;4.10;1.40;;;;;;;33.13;28.36;101189.91;30031198;28;97697;-58
2022/08/09 10:36:24;;;;;;;8.00;2.60;;;;;;;33.00;27.31;101184.03;30032461;29;97961;-57
2022/08/09 10:52:02;;;;;;;2.30;1.20;;;;;;;33.10;25.41;101176.72;30032715;29;104687;-60
2022/08/09 11:07:03;;;;;;;4.83;1.80;;;;;;;33.10;24.67;101162.91;30025579;29;97038;-59
2022/08/09 11:22:03;;;;;;;2.15;1.27;;;;;;;33.11;24.00;101159.00;30031621;29;96627;-60
2022/08/09 11:37:05;;;;;;;3.45;1.40;;;;;;;32.85;24.28;101146.44;30029859;29;97313;-60
2022/08/09 11:52:06;;;;;;;3.63;1.77;;;;;;;33.25;23.92;101142.56;30026031;29;97359;-60
2022/08/09 12:07:06;;;;;;;4.30;1.40;;;;;;;33.49;23.07;101140.50;30018716;29;97162;-59
2022/08/09 12:22:06;;;;;;;4.97;2.03;;;;;;;33.85;22.15;101125.25;30024375;29;97373;-60
2022/08/09 12:37:09;;;;;;;3.53;1.58;;;;;;;33.64;21.81;101120.06;30027710;28;97387;-60
2022/08/09 12:52:10;;;;;;;2.40;1.00;;;;;;;33.87;21.31;101118.31;30020573;29;97076;-61
2022/08/09 13:07:15;;;;;;;3.20;1.10;;;;;;;33.63;20.95;101107.38;29996238;29;98560;-60
2022/08/09 13:22:18;;;;;;;4.77;1.87;;;;;;;33.01;22.56;101091.84;29904458;29;96994;-62
2022/08/09 13:37:19;;;;;;;5.53;2.03;;;;;;;31.81;23.75;101090.03;29966268;29;97716;-60
2022/08/09 13:52:20;;;;;;;4.82;2.10;;;;;;;32.00;23.87;101079.91;30011271;29;96989;-60
2022/08/09 14:07:20;;;;;;;4.30;1.77;;;;;;;30.80;24.87;101094.16;30003767;29;97153;-62
2022/08/09 14:22:20;;;;;;;5.03;2.10;;;;;;;29.40;27.79;101101.13;30013786;29;96884;-63
2022/08/09 14:37:21;;;;;;;6.63;1.90;;;;;;;28.68;29.97;101105.41;30012074;29;96713;-63
2022/08/09 14:52:21;;;;;;;4.15;1.40;;;;;;;29.22;29.15;101106.03;30021128;29;96775;-60
2022/08/09 15:07:22;;;;;;;4.05;1.77;;;;;;;28.72;29.72;101093.91;30023351;29;97471;-60
2022/08/09 15:22:22;;;;;;;3.17;1.42;;;;;;;27.76;30.52;101085.75;30020729;29;97421;-63
2022/08/09 15:37:34;;;;;;;4.80;1.83;;;;;;;27.42;30.99;101088.78;30026522;29;97270;-64
2022/08/09 15:52:36;;;;;;;4.67;1.80;;;;;;;27.39;30.57;101089.31;30027173;29;96743;-63
2022/08/09 16:07:38;;;;;;;6.27;1.60;;;;;;;27.26;30.92;101068.69;30025169;29;97392;-62
2022/08/09 16:22:40;;;;;;;6.23;1.80;;;;;;;26.65;31.77;101070.50;30020700;29;96929;-62
2022/08/09 16:37:40;;;;;;;6.03;2.07;;;;;;;26.19;32.68;101067.25;30017828;29;97285;-61
2022/08/09 16:52:42;;;;;;;4.50;1.60;;;;;;;25.97;33.10;101075.38;30015656;29;97170;-64
2022/08/09 17:07:42;;;;;;;3.77;1.57;;;;;;;25.71;32.98;101082.38;30020497;29;96695;-61
2022/08/09 17:22:43;;;;;;;5.10;1.77;;;;;;;25.10;33.54;101077.56;30018639;29;96900;-62
2022/08/09 17:37:44;;;;;;;7.45;2.10;;;;;;;24.61;35.65;101092.47;30014804;29;96767;-62
2022/08/09 17:52:45;;;;;;;5.80;2.00;;;;;;;24.29;36.92;101095.59;30008188;29;97214;-62
2022/08/09 18:07:45;;;;;;;6.63;1.70;;;;;;;23.88;38.34;101105.59;30008559;29;102493;-63
2022/08/09 18:22:45;;;;;;;5.40;1.92;;;;;;;23.46;39.25;101098.31;30016144;29;97171;-62
2022/08/09 18:37:46;;;;;;;;;;;;;;;22.72;40.70;101108.53;30026079;29;97043;-61
2022/08/09 18:52:47;;;;;;;8.47;2.80;;;;;;;22.39;42.52;101120.63;30025462;29;97310;-61
2022/08/09 19:07:49;;;;;;;5.40;2.57;;;;;;;22.38;43.36;101140.72;30024061;29;97310;-61
2022/08/09 19:22:49;;;;;;;7.60;2.90;;;;;;;21.97;43.83;101145.69;30022000;29;97190;-61
2022/08/09 19:37:50;;;;;;;7.00;2.50;;;;;;;21.34;45.05;101150.09;30016870;29;104648;-61
2022/08/09 19:52:50;;;;;;;4.97;2.20;;;;;;;21.06;45.50;101153.19;30062817;29;97304;-61
2022/08/09 20:07:51;;;;;;;5.47;2.70;;;;;;;21.09;45.54;101163.56;30121426;28;97795;-62
2022/08/09 20:22:51;;;;;;;6.67;2.47;;;;;;;20.89;45.41;101174.53;30136402;29;97342;-61
2022/08/09 20:37:51;;;;;;;3.08;2.22;;;;;;;20.11;46.75;101170.75;30094621;28;1208005;-61
2022/08/09 20:52:52;;;;;;;5.32;2.45;;;;;;;19.55;48.18;101167.38;30141188;28;97617;-61
2022/08/09 21:07:54;;;;;;;7.15;3.15;;;;;;;19.09;49.34;101173.50;30136937;29;99889;-61
2022/08/09 21:22:54;;;;;;;6.87;3.30;;;;;;;18.74;50.79;101189.72;30138152;28;96702;-61
2022/08/09 21:37:55;;;;;;;6.50;3.15;;;;;;;18.58;51.79;101196.28;30136252;28;96782;-62
2022/08/09 21:52:55;;;;;;;5.63;3.30;;;;;;;18.55;52.39;101207.47;30136195;28;96904;-62
2022/08/09 22:07:56;;;;;;;11.30;3.53;;;;;;;17.91;54.17;101193.94;30047290;28;97135;-62
2022/08/09 22:22:56;;;;;;;7.35;3.30;;;;;;;17.80;54.82;101196.28;30020537;29;96849;-62
2022/08/09 22:37:57;;;;;;;8.23;3.20;;;;;;;17.57;55.72;101208.91;30016843;29;96816;-62
2022/08/09 22:52:59;;;;;;;6.17;3.37;;;;;;;17.32;56.30;101204.91;30017955;29;97557;-62
2022/08/09 23:23:18;;;;;;;5.53;3.20;;;;;;;17.02;58.18;101218.47;30035805;29;97004;-63
2022/08/09 23:38:19;;;;;;;6.97;3.53;;;;;;;17.03;58.85;101217.41;30033655;29;96713;-61
2022/08/09 23:53:20;;;;;;;6.40;3.10;;;;;;;16.76;59.62;101227.81;30033135;29;97485;-64
